createdAt,value
2018-12-24T00:00:12.300Z,0.73
2018-12-24T00:02:41.382Z,0.60
2018-12-24T00:05:10.883Z,0.50
2018-12-24T00:07:40.270Z,0.57
2018-12-24T00:10:09.311Z,0.60
2018-12-24T00:12:38.619Z,0.63
2018-12-24T00:15:07.745Z,0.50
2018-12-24T00:17:37.090Z,0.73
2018-12-24T00:20:06.232Z,0.60
2018-12-24T00:22:35.335Z,0.53
2018-12-24T00:25:04.494Z,0.50
2018-12-24T00:27:33.803Z,0.70
2018-12-24T00:30:02.919Z,0.70
2018-12-24T00:32:32.019Z,0.70
2018-12-24T00:35:01.059Z,0.80
2018-12-24T00:37:30.359Z,0.77
2018-12-24T00:39:59.638Z,0.60
2018-12-24T00:42:29.671Z,0.60
2018-12-24T00:44:58.723Z,0.50
2018-12-24T00:47:27.785Z,0.80
2018-12-24T00:49:56.859Z,0.70
2018-12-24T00:52:25.958Z,0.60
2018-12-24T00:54:55.009Z,0.60
2018-12-24T00:57:24.854Z,0.70
2018-12-24T00:59:53.904Z,0.60
2018-12-24T01:02:22.949Z,0.50
2018-12-24T01:04:51.996Z,0.60
2018-12-24T01:07:21.544Z,0.70
2018-12-24T01:09:50.866Z,0.57
2018-12-24T01:12:24.558Z,0.60
2018-12-24T01:14:51.176Z,0.60
2018-12-24T01:17:21.019Z,0.57
2018-12-24T01:19:50.514Z,0.50
2018-12-24T01:22:19.868Z,0.67
2018-12-24T01:24:49.015Z,0.50
2018-12-24T01:27:18.063Z,0.60
2018-12-24T01:29:47.119Z,0.63
2018-12-24T01:32:16.160Z,0.90
2018-12-24T01:34:45.494Z,0.63
2018-12-24T01:37:14.807Z,0.67
2018-12-24T01:39:43.910Z,0.43
2018-12-24T01:42:13.032Z,0.40
2018-12-24T01:44:42.339Z,0.60
2018-12-24T01:47:11.406Z,0.73
2018-12-24T01:49:40.451Z,0.40
2018-12-24T01:52:09.514Z,0.50
2018-12-24T01:54:38.812Z,0.70
2018-12-24T01:57:07.853Z,0.60
2018-12-24T01:59:36.908Z,0.60
2018-12-24T02:02:05.947Z,0.73
2018-12-24T02:04:34.999Z,0.63
2018-12-24T02:07:04.372Z,0.50
2018-12-24T02:09:33.444Z,0.70
2018-12-24T02:12:02.626Z,0.90
2018-12-24T02:14:31.684Z,0.60
2018-12-24T02:17:00.744Z,0.60
2018-12-24T02:19:29.794Z,0.67
2018-12-24T02:21:58.826Z,0.60
2018-12-24T02:24:27.901Z,0.90
2018-12-24T02:26:56.945Z,0.80
2018-12-24T02:29:26.012Z,0.60
2018-12-24T02:31:55.040Z,0.80
2018-12-24T02:34:24.097Z,1.17
2018-12-24T02:36:53.135Z,0.87
2018-12-24T02:39:22.452Z,0.70
2018-12-24T02:41:51.498Z,0.80
2018-12-24T02:44:20.563Z,0.70
2018-12-24T02:46:49.612Z,0.97
2018-12-24T02:49:18.700Z,0.90
2018-12-24T02:51:47.794Z,0.77
2018-12-24T02:54:16.899Z,0.93
2018-12-24T02:56:46.032Z,0.63
2018-12-24T02:59:15.093Z,1.00
2018-12-24T03:01:44.161Z,0.90
2018-12-24T03:04:13.283Z,0.90
2018-12-24T03:06:42.332Z,0.97
2018-12-24T03:09:11.390Z,0.70
2018-12-24T03:11:40.464Z,0.87
2018-12-24T03:14:09.509Z,0.80
2018-12-24T03:16:38.561Z,0.70
2018-12-24T03:19:07.597Z,0.60
2018-12-24T03:21:36.649Z,0.63
2018-12-24T03:24:05.744Z,0.80
2018-12-24T03:26:34.804Z,0.80
2018-12-24T03:29:03.909Z,0.50
2018-12-24T03:31:32.960Z,0.70
2018-12-24T03:34:02.007Z,0.70
2018-12-24T03:36:31.070Z,0.50
2018-12-24T03:39:00.182Z,0.73
2018-12-24T03:41:29.539Z,1.00
2018-12-24T03:43:58.843Z,0.90
2018-12-24T03:46:27.901Z,0.83
2018-12-24T03:48:56.936Z,1.00
2018-12-24T03:51:26.069Z,0.90
2018-12-24T03:53:55.112Z,0.80
2018-12-24T03:56:24.197Z,1.00
2018-12-24T03:58:53.236Z,1.00
2018-12-24T04:01:22.571Z,1.10
2018-12-24T04:03:51.620Z,0.90
2018-12-24T04:06:20.681Z,0.90
2018-12-24T04:08:49.742Z,1.50
2018-12-24T04:11:19.132Z,1.10
2018-12-24T04:13:48.180Z,1.10
2018-12-24T04:16:17.482Z,1.20
2018-12-24T04:18:46.536Z,1.10
2018-12-24T04:21:15.592Z,0.73
2018-12-24T04:23:44.641Z,1.10
2018-12-24T04:26:13.698Z,1.00
2018-12-24T04:28:42.743Z,0.80
2018-12-24T04:31:11.810Z,0.93
2018-12-24T04:33:40.859Z,0.80
2018-12-24T04:36:09.904Z,0.90
2018-12-24T04:38:39.260Z,1.10
2018-12-24T04:41:08.336Z,1.37
2018-12-24T04:43:37.370Z,0.90
2018-12-24T04:46:06.499Z,1.00
2018-12-24T04:48:35.751Z,1.00
2018-12-24T04:51:04.860Z,1.20
2018-12-24T04:53:33.914Z,1.23
2018-12-24T04:56:03.053Z,1.20
2018-12-24T04:58:32.096Z,2.03
2018-12-24T05:01:01.224Z,1.30
2018-12-24T05:03:30.322Z,1.83
2018-12-24T05:05:59.476Z,0.90
2018-12-24T05:08:28.787Z,0.73
2018-12-24T05:10:57.860Z,1.03
2018-12-24T05:13:26.916Z,0.77
2018-12-24T05:15:55.964Z,0.80
2018-12-24T05:18:25.079Z,1.20
2018-12-24T05:20:54.131Z,0.80
2018-12-24T05:23:23.444Z,0.87
2018-12-24T05:25:52.503Z,1.13
2018-12-24T05:28:21.559Z,1.00
2018-12-24T05:30:50.591Z,0.70
2018-12-24T05:33:19.664Z,0.83
2018-12-24T05:35:48.764Z,0.80
2018-12-24T05:38:17.840Z,0.90
2018-12-24T05:40:46.960Z,0.90
2018-12-24T05:43:16.061Z,1.30
2018-12-24T05:45:45.107Z,1.40
2018-12-24T05:48:14.418Z,1.40
2018-12-24T05:50:43.483Z,1.20
2018-12-24T05:53:12.824Z,1.10
2018-12-24T05:55:41.878Z,1.20
2018-12-24T05:58:10.938Z,1.33
2018-12-24T06:00:40.007Z,1.10
2018-12-24T06:03:09.116Z,1.10
2018-12-24T06:05:38.426Z,1.10
2018-12-24T06:08:07.488Z,0.83
2018-12-24T06:10:36.817Z,1.10
2018-12-24T06:13:05.884Z,1.40
2018-12-24T06:15:35.000Z,1.20
2018-12-24T06:18:04.079Z,1.03
2018-12-24T06:20:37.651Z,1.40
2018-12-24T06:23:03.965Z,1.40
2018-12-24T06:25:33.004Z,1.00
2018-12-24T06:28:02.067Z,1.20
2018-12-24T06:30:31.119Z,1.20
2018-12-24T06:33:00.188Z,1.07
2018-12-24T06:35:29.238Z,1.10
2018-12-24T06:37:58.291Z,1.40
2018-12-24T06:40:27.343Z,1.03
2018-12-24T06:42:56.655Z,1.40
2018-12-24T06:45:25.944Z,1.17
2018-12-24T06:47:54.991Z,1.00
2018-12-24T06:50:24.031Z,0.90
2018-12-24T06:52:53.436Z,0.80
2018-12-24T06:55:22.475Z,0.90
2018-12-24T06:57:51.536Z,0.77
2018-12-24T07:00:20.588Z,0.87
2018-12-24T07:02:49.927Z,0.93
2018-12-24T07:05:18.987Z,0.67
2018-12-24T07:07:48.036Z,0.50
2018-12-24T07:10:17.080Z,0.60
2018-12-24T07:12:46.142Z,0.70
2018-12-24T07:15:15.183Z,0.80
2018-12-24T07:17:44.227Z,0.97
2018-12-24T07:20:13.419Z,0.67
2018-12-24T07:22:42.471Z,0.53
2018-12-24T07:25:11.768Z,0.80
2018-12-24T07:27:40.834Z,1.30
2018-12-24T07:30:09.897Z,0.70
2018-12-24T07:32:40.464Z,0.53
2018-12-24T07:35:09.771Z,0.70
2018-12-24T07:37:38.893Z,0.80
2018-12-24T07:40:08.365Z,0.80
2018-12-24T07:42:37.418Z,1.03
2018-12-24T07:45:06.790Z,0.50
2018-12-24T07:47:35.863Z,0.90
2018-12-24T07:50:05.335Z,0.70
2018-12-24T07:52:34.404Z,0.80
2018-12-24T07:55:03.432Z,0.93
2018-12-24T07:57:32.518Z,1.20
2018-12-24T08:00:01.619Z,0.77
2018-12-24T08:02:30.679Z,1.27
2018-12-24T08:04:59.986Z,1.10
2018-12-24T08:07:29.300Z,0.60
2018-12-24T08:09:58.581Z,0.90
2018-12-24T08:12:27.679Z,0.80
2018-12-24T08:14:56.713Z,0.93
2018-12-24T08:17:25.811Z,0.80
2018-12-24T08:19:54.869Z,0.80
2018-12-24T08:22:24.245Z,0.77
2018-12-24T08:24:53.307Z,1.20
2018-12-24T08:27:22.376Z,0.97
2018-12-24T08:29:51.508Z,1.40
2018-12-24T08:32:20.582Z,1.20
2018-12-24T08:34:49.636Z,1.00
2018-12-24T08:37:18.726Z,1.50
2018-12-24T08:39:47.795Z,1.30
2018-12-24T08:42:16.872Z,1.70
2018-12-24T08:44:46.028Z,1.70
2018-12-24T08:47:15.108Z,1.47
2018-12-24T08:49:44.191Z,1.27
2018-12-24T08:52:13.271Z,1.90
2018-12-24T08:54:42.314Z,1.33
2018-12-24T08:57:11.363Z,1.50
2018-12-24T08:59:40.426Z,1.10
2018-12-24T09:02:09.475Z,1.70
2018-12-24T09:04:38.601Z,1.73
2018-12-24T09:07:07.654Z,2.00
2018-12-24T09:09:36.769Z,2.13
2018-12-24T09:12:05.808Z,2.63
2018-12-24T09:14:34.871Z,2.40
2018-12-24T09:17:03.999Z,1.63
2018-12-24T09:19:33.071Z,1.47
2018-12-24T09:22:02.113Z,1.70
2018-12-24T09:24:31.423Z,1.47
2018-12-24T09:27:00.463Z,1.63
2018-12-24T09:29:29.551Z,2.00
2018-12-24T09:31:58.601Z,1.00
2018-12-24T09:34:27.750Z,1.07
2018-12-24T09:36:57.072Z,0.97
2018-12-24T09:39:26.210Z,0.60
2018-12-24T09:41:56.044Z,0.77
2018-12-24T09:44:25.138Z,0.90
2018-12-24T09:46:54.211Z,1.10
2018-12-24T09:49:23.277Z,0.80
2018-12-24T09:51:52.323Z,1.23
2018-12-24T09:54:21.407Z,1.30
2018-12-24T09:56:50.455Z,0.90
2018-12-24T09:59:19.519Z,1.20
2018-12-24T10:01:48.591Z,1.40
2018-12-24T10:04:21.254Z,1.10
2018-12-24T10:06:50.372Z,1.20
2018-12-24T10:09:19.436Z,1.30
2018-12-24T10:11:48.494Z,1.10
2018-12-24T10:14:17.795Z,1.63
2018-12-24T10:16:46.859Z,1.40
2018-12-24T10:19:16.180Z,1.63
2018-12-24T10:21:45.222Z,1.57
2018-12-24T10:24:14.643Z,1.67
2018-12-24T10:26:44.307Z,1.83
2018-12-24T10:29:13.380Z,2.10
2018-12-24T10:31:42.459Z,1.73
2018-12-24T10:34:11.634Z,1.20
2018-12-24T10:36:40.662Z,1.60
2018-12-24T10:39:09.762Z,1.60
2018-12-24T10:41:38.796Z,1.70
2018-12-24T10:44:07.858Z,1.80
2018-12-24T10:46:37.185Z,2.10
2018-12-24T10:49:06.220Z,2.10
2018-12-24T10:51:35.378Z,24.90
2018-12-24T10:54:04.436Z,4.87
2018-12-24T10:56:33.764Z,2.40
2018-12-24T10:59:02.858Z,2.90
2018-12-24T11:01:32.200Z,2.77
2018-12-24T11:04:01.301Z,3.00
2018-12-24T11:06:30.401Z,2.30
2018-12-24T11:08:59.478Z,2.60
2018-12-24T11:11:29.958Z,2.13
2018-12-24T11:13:59.355Z,2.60
2018-12-24T11:16:28.427Z,2.50
2018-12-24T11:18:57.471Z,2.53
2018-12-24T11:21:26.542Z,2.20
2018-12-24T11:23:55.623Z,2.70
2018-12-24T11:26:24.954Z,2.70
2018-12-24T11:28:54.088Z,2.93
2018-12-24T11:31:23.147Z,2.20
2018-12-24T11:33:52.267Z,2.97
2018-12-24T11:36:21.395Z,2.10
2018-12-24T11:38:50.444Z,2.80
2018-12-24T11:41:19.859Z,2.63
2018-12-24T11:43:48.917Z,2.80
2018-12-24T11:46:18.245Z,2.50
2018-12-24T11:48:47.283Z,3.17
2018-12-24T11:51:16.468Z,3.20
2018-12-24T11:53:45.551Z,2.83
2018-12-24T11:56:14.616Z,3.30
2018-12-24T11:58:43.694Z,2.67
2018-12-24T12:01:13.028Z,3.23
2018-12-24T12:03:42.342Z,3.00
2018-12-24T12:06:19.540Z,2.70
2018-12-24T12:08:42.154Z,3.63
2018-12-24T12:11:11.468Z,3.13
2018-12-24T12:13:40.513Z,3.30
2018-12-24T12:16:09.583Z,3.37
2018-12-24T12:18:38.638Z,3.67
2018-12-24T12:21:07.717Z,3.50
2018-12-24T12:23:36.759Z,4.30
2018-12-24T12:26:05.842Z,3.03
2018-12-24T12:28:34.976Z,3.53
2018-12-24T12:31:04.397Z,3.00
2018-12-24T12:33:33.436Z,3.50
2018-12-24T12:36:02.908Z,3.17
2018-12-24T12:38:31.970Z,2.93
2018-12-24T12:41:01.084Z,3.23
2018-12-24T12:43:30.146Z,3.47
2018-12-24T12:45:59.779Z,2.77
2018-12-24T12:48:28.866Z,3.40
2018-12-24T12:50:58.024Z,3.60
2018-12-24T12:53:27.067Z,3.83
2018-12-24T12:55:56.355Z,4.03
2018-12-24T12:58:25.460Z,3.43
2018-12-24T13:00:54.753Z,3.43
2018-12-24T13:03:23.935Z,3.33
2018-12-24T13:05:52.979Z,4.07
2018-12-24T13:08:22.088Z,4.57
2018-12-24T13:10:51.211Z,5.00
2018-12-24T13:13:20.562Z,6.20
2018-12-24T13:15:49.849Z,5.57
2018-12-24T13:18:18.978Z,5.90
2018-12-24T13:20:48.031Z,6.47
2018-12-24T13:23:17.135Z,7.00
2018-12-24T13:25:46.627Z,6.60
2018-12-24T13:28:15.712Z,3.80
2018-12-24T13:30:44.823Z,3.83
2018-12-24T13:33:14.242Z,3.47
2018-12-24T13:35:43.615Z,2.90
2018-12-24T13:38:13.037Z,3.90
2018-12-24T13:40:42.075Z,3.60
2018-12-24T13:43:11.167Z,4.30
2018-12-24T13:45:40.205Z,3.40
2018-12-24T13:48:09.304Z,3.10
2018-12-24T13:50:38.792Z,4.10
2018-12-24T13:53:07.920Z,3.63
2018-12-24T13:55:36.959Z,3.57
2018-12-24T13:58:06.052Z,3.67
2018-12-24T14:00:35.361Z,3.60
2018-12-24T14:03:04.476Z,3.20
2018-12-24T14:05:33.523Z,3.07
2018-12-24T14:08:02.612Z,3.63
2018-12-24T14:10:31.668Z,3.70
2018-12-24T14:13:01.028Z,3.30
2018-12-24T14:15:30.127Z,3.53
2018-12-24T14:17:59.353Z,3.80
2018-12-24T14:20:28.463Z,3.73
2018-12-24T14:22:57.625Z,3.50
2018-12-24T14:25:26.725Z,3.20
2018-12-24T14:27:56.044Z,4.10
2018-12-24T14:30:25.151Z,3.67
2018-12-24T14:32:54.223Z,3.70
2018-12-24T14:35:23.523Z,3.13
2018-12-24T14:37:52.987Z,3.23
2018-12-24T14:40:22.367Z,3.30
2018-12-24T14:42:51.512Z,3.37
2018-12-24T14:45:20.711Z,3.90
2018-12-24T14:47:49.786Z,2.97
2018-12-24T14:50:18.908Z,3.37
2018-12-24T14:52:48.269Z,3.10
2018-12-24T14:55:17.316Z,3.10
2018-12-24T14:57:46.655Z,3.37
2018-12-24T15:00:15.758Z,3.30
2018-12-24T15:02:45.321Z,3.67
2018-12-24T15:05:14.447Z,3.20
2018-12-24T15:07:43.498Z,4.23
2018-12-24T15:10:12.809Z,3.60
2018-12-24T15:12:41.916Z,3.67
2018-12-24T15:15:11.031Z,3.20
2018-12-24T15:17:40.115Z,3.60
2018-12-24T15:20:09.232Z,3.50
2018-12-24T15:22:38.336Z,4.20
2018-12-24T15:25:07.685Z,3.50
2018-12-24T15:27:36.991Z,4.00
2018-12-24T15:30:06.310Z,4.30
2018-12-24T15:32:35.376Z,4.30
2018-12-24T15:35:04.535Z,4.50
2018-12-24T15:37:34.495Z,3.93
2018-12-24T15:40:03.993Z,5.40
2018-12-24T15:42:33.060Z,4.50
2018-12-24T15:45:02.361Z,3.13
2018-12-24T15:47:31.436Z,3.13
2018-12-24T15:50:00.489Z,3.50
2018-12-24T15:52:29.569Z,3.90
2018-12-24T15:54:58.907Z,4.00
2018-12-24T15:57:28.228Z,3.60
2018-12-24T15:59:57.394Z,3.13
2018-12-24T16:02:26.456Z,3.53
2018-12-24T16:04:55.571Z,3.60
2018-12-24T16:07:25.045Z,14.40
2018-12-24T16:09:54.351Z,44.30
2018-12-24T16:12:23.469Z,3.73
2018-12-24T16:14:52.909Z,3.73
2018-12-24T16:17:22.232Z,3.60
2018-12-24T16:19:53.039Z,3.90
2018-12-24T16:22:22.147Z,3.80
2018-12-24T16:24:51.271Z,4.80
2018-12-24T16:27:20.446Z,4.20
2018-12-24T16:29:50.035Z,5.17
2018-12-24T16:32:19.200Z,4.60
2018-12-24T16:34:48.327Z,5.03
2018-12-24T16:37:17.364Z,4.47
2018-12-24T16:39:46.727Z,5.37
2018-12-24T16:42:15.790Z,4.20
2018-12-24T16:44:44.836Z,4.70
2018-12-24T16:47:33.215Z,4.80
2018-12-24T16:50:04.256Z,4.20
2018-12-24T16:52:33.695Z,5.07
2018-12-24T16:55:02.767Z,4.23
2018-12-24T16:57:32.124Z,4.10
2018-12-24T17:00:03.001Z,4.17
2018-12-24T17:02:32.032Z,4.90
2018-12-24T17:05:01.119Z,5.97
2018-12-24T17:07:30.237Z,5.60
2018-12-24T17:09:59.612Z,5.50
2018-12-24T17:12:28.775Z,5.43
2018-12-24T17:14:59.644Z,5.43
2018-12-24T17:17:28.831Z,5.67
2018-12-24T17:20:17.120Z,6.10
2018-12-24T17:22:46.224Z,5.10
2018-12-24T17:25:15.270Z,4.80
2018-12-24T17:27:44.318Z,4.97
2018-12-24T17:30:13.456Z,3.97
2018-12-24T17:32:42.810Z,5.03
2018-12-24T17:35:11.912Z,4.30
2018-12-24T17:37:41.066Z,5.03
2018-12-24T17:40:10.402Z,4.50
2018-12-24T17:42:39.752Z,5.70
2018-12-24T17:45:09.111Z,5.67
2018-12-24T17:47:38.158Z,5.40
2018-12-24T17:50:07.404Z,6.53
2018-12-24T17:52:38.520Z,5.63
2018-12-24T17:55:07.680Z,4.90
2018-12-24T17:57:36.984Z,5.90
2018-12-24T18:00:06.248Z,6.90
2018-12-24T18:02:35.672Z,6.67
2018-12-24T18:05:05.077Z,7.40
2018-12-24T18:07:34.784Z,6.07
2018-12-24T18:10:03.907Z,6.30
2018-12-24T18:12:33.027Z,6.10
2018-12-24T18:15:02.382Z,5.40
2018-12-24T18:17:31.492Z,5.40
2018-12-24T18:20:00.532Z,5.33
2018-12-24T18:22:29.684Z,8.10
2018-12-24T18:24:58.728Z,6.13
2018-12-24T18:27:33.215Z,7.70
2018-12-24T18:30:02.591Z,7.20
2018-12-24T18:32:31.681Z,7.10
2018-12-24T18:35:00.772Z,7.20
2018-12-24T18:37:29.851Z,5.30
2018-12-24T18:39:58.903Z,6.03
2018-12-24T18:42:28.053Z,6.27
2018-12-24T18:44:57.092Z,5.70
2018-12-24T18:47:33.121Z,5.50
2018-12-24T18:49:56.927Z,6.57
2018-12-24T18:52:25.998Z,6.13
2018-12-24T18:54:55.087Z,4.93
2018-12-24T18:57:24.431Z,5.73
2018-12-24T18:59:53.478Z,5.80
2018-12-24T19:02:22.572Z,5.40
2018-12-24T19:04:52.879Z,5.33
2018-12-24T19:07:22.007Z,6.33
2018-12-24T19:09:51.092Z,5.33
2018-12-24T19:12:20.648Z,6.60
2018-12-24T19:14:49.940Z,6.63
2018-12-24T19:17:18.991Z,6.20
2018-12-24T19:19:48.344Z,6.23
2018-12-24T19:22:17.387Z,6.67
2018-12-24T19:24:46.432Z,6.50
2018-12-24T19:27:15.519Z,5.97
2018-12-24T19:29:44.564Z,6.37
2018-12-24T19:32:13.863Z,6.93
2018-12-24T19:34:42.959Z,7.00
2018-12-24T19:37:12.131Z,6.50
2018-12-24T19:39:41.205Z,8.23
2018-12-24T19:42:10.857Z,6.43
2018-12-24T19:44:40.207Z,7.10
2018-12-24T19:47:09.256Z,8.10
2018-12-24T19:49:38.475Z,7.93
2018-12-24T19:52:07.563Z,7.63
2018-12-24T19:54:36.891Z,6.70
2018-12-24T19:57:05.986Z,7.13
2018-12-24T19:59:35.043Z,7.00
2018-12-24T20:02:04.487Z,6.97
2018-12-24T20:04:33.723Z,6.00
2018-12-24T20:07:03.083Z,7.00
2018-12-24T20:09:32.122Z,6.93
2018-12-24T20:12:02.468Z,8.40
2018-12-24T20:14:31.802Z,8.03
2018-12-24T20:17:01.132Z,7.60
2018-12-24T20:19:30.232Z,10.13
2018-12-24T20:21:59.550Z,7.00
2018-12-24T20:24:28.887Z,7.30
2018-12-24T20:26:57.999Z,9.40
2018-12-24T20:29:27.051Z,9.03
2018-12-24T20:31:56.416Z,6.77
2018-12-24T20:34:25.455Z,5.53
2018-12-24T20:36:54.615Z,5.23
2018-12-24T20:39:23.718Z,6.20
2018-12-24T20:41:52.784Z,5.80
2018-12-24T20:44:21.830Z,5.80
2018-12-24T20:46:51.201Z,6.90
2018-12-24T20:49:20.255Z,6.67
2018-12-24T20:51:49.305Z,5.87
2018-12-24T20:54:18.687Z,6.17
2018-12-24T20:56:48.079Z,5.80
2018-12-24T20:59:17.126Z,4.70
2018-12-24T21:01:46.648Z,5.83
2018-12-24T21:04:15.683Z,6.00
2018-12-24T21:06:45.623Z,4.80
2018-12-24T21:09:14.820Z,6.80
2018-12-24T21:11:43.923Z,6.10
2018-12-24T21:14:13.223Z,5.10
2018-12-24T21:16:42.319Z,7.13
2018-12-24T21:19:11.380Z,5.90
2018-12-24T21:21:40.745Z,6.10
2018-12-24T21:24:10.056Z,5.50
2018-12-24T21:26:39.146Z,6.17
2018-12-24T21:29:08.196Z,4.80
2018-12-24T21:31:37.289Z,5.87
2018-12-24T21:34:06.337Z,6.87
2018-12-24T21:36:35.415Z,6.53
2018-12-24T21:39:05.690Z,7.37
2018-12-24T21:41:34.760Z,8.00
2018-12-24T21:44:04.454Z,7.87
2018-12-24T21:46:34.015Z,6.60
2018-12-24T21:49:03.092Z,6.87
2018-12-24T21:51:32.212Z,7.67
2018-12-24T21:54:01.546Z,6.77
2018-12-24T21:56:30.872Z,6.30
2018-12-24T21:59:00.029Z,6.43
2018-12-24T22:01:29.090Z,6.83
2018-12-24T22:03:58.424Z,6.10
2018-12-24T22:06:27.468Z,6.20
2018-12-24T22:08:56.616Z,5.43
2018-12-24T22:11:25.667Z,4.20
2018-12-24T22:13:56.056Z,5.50
2018-12-24T22:16:25.104Z,5.10
2018-12-24T22:18:54.185Z,5.40
2018-12-24T22:21:23.295Z,5.00
2018-12-24T22:23:52.566Z,5.93
2018-12-24T22:26:21.795Z,5.90
2018-12-24T22:28:50.979Z,5.60
2018-12-24T22:31:20.027Z,5.00
2018-12-24T22:33:49.532Z,6.60
2018-12-24T22:36:18.587Z,6.20
2018-12-24T22:38:47.763Z,6.70
2018-12-24T22:41:17.069Z,5.47
2018-12-24T22:43:46.132Z,5.97
2018-12-24T22:46:15.207Z,6.70
2018-12-24T22:48:44.291Z,6.63
2018-12-24T22:51:13.859Z,6.90
2018-12-24T22:53:42.928Z,5.90
2018-12-24T22:56:11.988Z,6.30
2018-12-24T22:58:42.421Z,5.43
2018-12-24T23:01:11.591Z,5.97
2018-12-24T23:03:40.907Z,4.67
2018-12-24T23:06:10.114Z,5.80
2018-12-24T23:08:39.204Z,5.57
2018-12-24T23:11:08.544Z,5.27
2018-12-24T23:13:37.619Z,5.40
2018-12-24T23:16:06.691Z,5.97
2018-12-24T23:18:35.762Z,5.03
2018-12-24T23:21:05.071Z,4.60
2018-12-24T23:23:34.403Z,5.23
2018-12-24T23:26:03.477Z,4.30
2018-12-24T23:28:32.824Z,4.33
2018-12-24T23:31:01.955Z,4.53
2018-12-24T23:33:31.021Z,4.30
2018-12-24T23:36:00.076Z,4.87
2018-12-24T23:38:29.205Z,4.70
2018-12-24T23:40:58.513Z,4.30
2018-12-24T23:43:27.563Z,5.47
2018-12-24T23:45:56.619Z,6.00
2018-12-24T23:48:25.924Z,5.10
2018-12-24T23:50:54.974Z,5.17
2018-12-24T23:53:24.336Z,4.70
2018-12-24T23:55:53.408Z,4.50
2018-12-24T23:58:22.468Z,5.57
